sensor_id;sensor_type;location;lat;lon;timestamp;P1;durP1;ratioP1;P2;durP2;ratioP2
22193;SDS011;11262;50.308;9.270;2022-07-18T00:01:34;4.23;;;2.40;;
22193;SDS011;11262;50.308;9.270;2022-07-18T00:04:00;4.73;;;2.80;;
22193;SDS011;11262;50.308;9.270;2022-07-18T00:06:26;6.60;;;2.70;;
22193;SDS011;11262;50.308;9.270;2022-07-18T00:08:51;6.73;;;2.87;;
22193;SDS011;11262;50.308;9.270;2022-07-18T00:11:18;4.97;;;2.50;;
22193;SDS011;11262;50.308;9.270;2022-07-18T00:13:43;5.43;;;2.30;;
22193;SDS011;11262;50.308;9.270;2022-07-18T00:16:09;3.50;;;2.23;;
22193;SDS011;11262;50.308;9.270;2022-07-18T00:18:35;3.73;;;2.67;;
22193;SDS011;11262;50.308;9.270;2022-07-18T00:21:01;3.47;;;2.30;;
22193;SDS011;11262;50.308;9.270;2022-07-18T00:23:26;3.60;;;2.60;;
22193;SDS011;11262;50.308;9.270;2022-07-18T00:25:52;4.93;;;2.67;;
22193;SDS011;11262;50.308;9.270;2022-07-18T00:28:17;2.47;;;2.27;;
22193;SDS011;11262;50.308;9.270;2022-07-18T00:30:43;6.70;;;2.70;;
22193;SDS011;11262;50.308;9.270;2022-07-18T00:33:09;3.43;;;2.60;;
22193;SDS011;11262;50.308;9.270;2022-07-18T00:35:34;4.70;;;2.67;;
22193;SDS011;11262;50.308;9.270;2022-07-18T00:38:00;4.33;;;2.77;;
22193;SDS011;11262;50.308;9.270;2022-07-18T00:40:27;7.67;;;2.90;;
22193;SDS011;11262;50.308;9.270;2022-07-18T00:42:53;2.70;;;2.50;;
22193;SDS011;11262;50.308;9.270;2022-07-18T00:45:19;2.93;;;2.60;;
22193;SDS011;11262;50.308;9.270;2022-07-18T00:47:44;7.13;;;2.90;;
22193;SDS011;11262;50.308;9.270;2022-07-18T00:50:10;4.90;;;2.90;;
22193;SDS011;11262;50.308;9.270;2022-07-18T00:52:36;7.37;;;2.90;;
22193;SDS011;11262;50.308;9.270;2022-07-18T00:55:03;4.60;;;2.57;;
22193;SDS011;11262;50.308;9.270;2022-07-18T00:57:32;4.47;;;2.77;;
22193;SDS011;11262;50.308;9.270;2022-07-18T00:59:57;4.57;;;3.33;;
22193;SDS011;11262;50.308;9.270;2022-07-18T01:02:42;4.17;;;2.50;;
22193;SDS011;11262;50.308;9.270;2022-07-18T01:05:08;6.57;;;3.10;;
22193;SDS011;11262;50.308;9.270;2022-07-18T01:07:35;6.10;;;2.93;;
22193;SDS011;11262;50.308;9.270;2022-07-18T01:10:01;5.17;;;2.73;;
22193;SDS011;11262;50.308;9.270;2022-07-18T01:12:27;7.00;;;2.53;;
22193;SDS011;11262;50.308;9.270;2022-07-18T01:14:53;5.83;;;2.80;;
22193;SDS011;11262;50.308;9.270;2022-07-18T01:17:20;3.87;;;2.70;;
22193;SDS011;11262;50.308;9.270;2022-07-18T01:19:46;4.50;;;2.63;;
22193;SDS011;11262;50.308;9.270;2022-07-18T01:22:14;8.80;;;2.77;;
22193;SDS011;11262;50.308;9.270;2022-07-18T01:24:41;2.67;;;2.47;;
22193;SDS011;11262;50.308;9.270;2022-07-18T01:27:07;3.93;;;2.70;;
22193;SDS011;11262;50.308;9.270;2022-07-18T01:29:33;5.23;;;2.90;;
22193;SDS011;11262;50.308;9.270;2022-07-18T01:32:05;3.93;;;2.73;;
22193;SDS011;11262;50.308;9.270;2022-07-18T01:34:32;5.83;;;2.73;;
22193;SDS011;11262;50.308;9.270;2022-07-18T01:36:58;5.30;;;2.70;;
22193;SDS011;11262;50.308;9.270;2022-07-18T01:39:24;5.53;;;2.70;;
22193;SDS011;11262;50.308;9.270;2022-07-18T01:42:01;6.03;;;3.00;;
22193;SDS011;11262;50.308;9.270;2022-07-18T01:44:29;5.30;;;2.90;;
22193;SDS011;11262;50.308;9.270;2022-07-18T01:46:55;4.37;;;2.87;;
22193;SDS011;11262;50.308;9.270;2022-07-18T01:49:21;4.77;;;3.17;;
22193;SDS011;11262;50.308;9.270;2022-07-18T01:51:48;3.80;;;2.70;;
22193;SDS011;11262;50.308;9.270;2022-07-18T01:54:15;5.27;;;2.57;;
22193;SDS011;11262;50.308;9.270;2022-07-18T01:56:43;3.47;;;3.17;;
22193;SDS011;11262;50.308;9.270;2022-07-18T01:59:09;3.73;;;2.90;;
22193;SDS011;11262;50.308;9.270;2022-07-18T02:01:35;4.53;;;3.10;;
22193;SDS011;11262;50.308;9.270;2022-07-18T02:04:01;4.90;;;2.77;;
22193;SDS011;11262;50.308;9.270;2022-07-18T02:06:27;4.97;;;2.87;;
22193;SDS011;11262;50.308;9.270;2022-07-18T02:08:53;5.23;;;3.10;;
22193;SDS011;11262;50.308;9.270;2022-07-18T02:11:18;5.40;;;3.20;;
22193;SDS011;11262;50.308;9.270;2022-07-18T02:13:44;7.23;;;2.83;;
22193;SDS011;11262;50.308;9.270;2022-07-18T02:16:09;8.97;;;3.00;;
22193;SDS011;11262;50.308;9.270;2022-07-18T02:18:35;3.60;;;2.90;;
22193;SDS011;11262;50.308;9.270;2022-07-18T02:21:00;8.00;;;3.10;;
22193;SDS011;11262;50.308;9.270;2022-07-18T02:23:26;3.33;;;2.83;;
22193;SDS011;11262;50.308;9.270;2022-07-18T02:25:52;4.63;;;2.80;;
22193;SDS011;11262;50.308;9.270;2022-07-18T02:28:18;4.83;;;2.93;;
22193;SDS011;11262;50.308;9.270;2022-07-18T02:30:44;7.53;;;3.23;;
22193;SDS011;11262;50.308;9.270;2022-07-18T02:33:09;2.97;;;2.73;;
22193;SDS011;11262;50.308;9.270;2022-07-18T02:35:35;6.83;;;3.20;;
22193;SDS011;11262;50.308;9.270;2022-07-18T02:38:01;5.60;;;3.00;;
22193;SDS011;11262;50.308;9.270;2022-07-18T02:40:27;7.23;;;3.50;;
22193;SDS011;11262;50.308;9.270;2022-07-18T02:42:52;3.07;;;2.83;;
22193;SDS011;11262;50.308;9.270;2022-07-18T02:45:18;4.83;;;2.70;;
22193;SDS011;11262;50.308;9.270;2022-07-18T02:47:43;4.70;;;3.00;;
22193;SDS011;11262;50.308;9.270;2022-07-18T02:50:09;4.30;;;2.93;;
22193;SDS011;11262;50.308;9.270;2022-07-18T02:52:35;3.90;;;2.83;;
22193;SDS011;11262;50.308;9.270;2022-07-18T02:55:02;5.67;;;3.03;;
22193;SDS011;11262;50.308;9.270;2022-07-18T02:57:28;3.23;;;2.90;;
22193;SDS011;11262;50.308;9.270;2022-07-18T02:59:54;4.80;;;3.07;;
22193;SDS011;11262;50.308;9.270;2022-07-18T03:02:19;6.20;;;3.20;;
22193;SDS011;11262;50.308;9.270;2022-07-18T03:04:45;6.43;;;3.20;;
22193;SDS011;11262;50.308;9.270;2022-07-18T03:07:11;5.97;;;3.23;;
22193;SDS011;11262;50.308;9.270;2022-07-18T03:09:36;7.20;;;3.07;;
22193;SDS011;11262;50.308;9.270;2022-07-18T03:12:02;5.83;;;3.33;;
22193;SDS011;11262;50.308;9.270;2022-07-18T03:14:28;4.03;;;2.90;;
22193;SDS011;11262;50.308;9.270;2022-07-18T03:16:53;3.43;;;3.10;;
22193;SDS011;11262;50.308;9.270;2022-07-18T03:19:19;5.20;;;2.93;;
22193;SDS011;11262;50.308;9.270;2022-07-18T03:21:45;5.37;;;3.07;;
22193;SDS011;11262;50.308;9.270;2022-07-18T03:24:11;7.77;;;3.23;;
22193;SDS011;11262;50.308;9.270;2022-07-18T03:26:38;5.77;;;3.07;;
22193;SDS011;11262;50.308;9.270;2022-07-18T03:29:04;6.30;;;3.00;;
22193;SDS011;11262;50.308;9.270;2022-07-18T03:31:30;4.33;;;3.30;;
22193;SDS011;11262;50.308;9.270;2022-07-18T03:33:55;4.13;;;3.00;;
22193;SDS011;11262;50.308;9.270;2022-07-18T03:36:21;5.30;;;2.67;;
22193;SDS011;11262;50.308;9.270;2022-07-18T03:38:47;6.33;;;3.20;;
22193;SDS011;11262;50.308;9.270;2022-07-18T03:41:12;8.43;;;3.10;;
22193;SDS011;11262;50.308;9.270;2022-07-18T03:43:39;4.43;;;3.20;;
22193;SDS011;11262;50.308;9.270;2022-07-18T03:46:05;7.10;;;2.97;;
22193;SDS011;11262;50.308;9.270;2022-07-18T03:48:31;4.47;;;3.20;;
22193;SDS011;11262;50.308;9.270;2022-07-18T03:50:58;4.97;;;2.90;;
22193;SDS011;11262;50.308;9.270;2022-07-18T03:53:24;7.73;;;3.00;;
22193;SDS011;11262;50.308;9.270;2022-07-18T03:55:50;5.53;;;2.87;;
22193;SDS011;11262;50.308;9.270;2022-07-18T03:58:16;4.70;;;2.97;;
22193;SDS011;11262;50.308;9.270;2022-07-18T04:00:41;4.17;;;3.00;;
22193;SDS011;11262;50.308;9.270;2022-07-18T04:03:07;4.80;;;3.23;;
22193;SDS011;11262;50.308;9.270;2022-07-18T04:05:33;5.33;;;3.10;;
22193;SDS011;11262;50.308;9.270;2022-07-18T04:07:58;6.77;;;3.20;;
22193;SDS011;11262;50.308;9.270;2022-07-18T04:10:24;5.93;;;3.20;;
22193;SDS011;11262;50.308;9.270;2022-07-18T04:12:52;3.83;;;3.13;;
22193;SDS011;11262;50.308;9.270;2022-07-18T04:15:19;8.33;;;2.97;;
22193;SDS011;11262;50.308;9.270;2022-07-18T04:17:46;5.63;;;3.00;;
22193;SDS011;11262;50.308;9.270;2022-07-18T04:20:12;5.07;;;3.10;;
22193;SDS011;11262;50.308;9.270;2022-07-18T04:22:45;6.67;;;2.90;;
22193;SDS011;11262;50.308;9.270;2022-07-18T04:25:22;4.53;;;3.07;;
22193;SDS011;11262;50.308;9.270;2022-07-18T04:27:49;3.20;;;2.90;;
22193;SDS011;11262;50.308;9.270;2022-07-18T04:30:17;10.10;;;2.93;;
22193;SDS011;11262;50.308;9.270;2022-07-18T04:32:44;5.23;;;2.83;;
22193;SDS011;11262;50.308;9.270;2022-07-18T04:35:09;5.37;;;2.87;;
22193;SDS011;11262;50.308;9.270;2022-07-18T04:37:36;6.73;;;3.37;;
22193;SDS011;11262;50.308;9.270;2022-07-18T04:40:03;7.67;;;3.50;;
22193;SDS011;11262;50.308;9.270;2022-07-18T04:42:29;5.53;;;3.00;;
22193;SDS011;11262;50.308;9.270;2022-07-18T04:44:58;6.20;;;3.23;;
22193;SDS011;11262;50.308;9.270;2022-07-18T04:47:24;5.53;;;2.93;;
22193;SDS011;11262;50.308;9.270;2022-07-18T04:49:50;6.07;;;3.10;;
22193;SDS011;11262;50.308;9.270;2022-07-18T04:52:16;4.63;;;2.80;;
22193;SDS011;11262;50.308;9.270;2022-07-18T04:54:41;4.13;;;3.30;;
22193;SDS011;11262;50.308;9.270;2022-07-18T04:57:07;4.77;;;2.73;;
22193;SDS011;11262;50.308;9.270;2022-07-18T04:59:35;3.67;;;2.70;;
22193;SDS011;11262;50.308;9.270;2022-07-18T05:02:01;7.63;;;2.80;;
22193;SDS011;11262;50.308;9.270;2022-07-18T05:04:27;6.47;;;3.30;;
22193;SDS011;11262;50.308;9.270;2022-07-18T05:06:52;5.93;;;3.03;;
22193;SDS011;11262;50.308;9.270;2022-07-18T05:09:18;5.07;;;3.03;;
22193;SDS011;11262;50.308;9.270;2022-07-18T05:11:43;6.80;;;2.90;;
22193;SDS011;11262;50.308;9.270;2022-07-18T05:14:09;4.20;;;2.60;;
22193;SDS011;11262;50.308;9.270;2022-07-18T05:16:34;7.17;;;2.70;;
22193;SDS011;11262;50.308;9.270;2022-07-18T05:19:00;4.17;;;2.30;;
22193;SDS011;11262;50.308;9.270;2022-07-18T05:21:25;4.23;;;2.60;;
22193;SDS011;11262;50.308;9.270;2022-07-18T05:23:51;5.97;;;2.90;;
22193;SDS011;11262;50.308;9.270;2022-07-18T05:26:16;4.50;;;2.60;;
22193;SDS011;11262;50.308;9.270;2022-07-18T05:28:42;5.87;;;2.97;;
22193;SDS011;11262;50.308;9.270;2022-07-18T05:31:08;4.43;;;2.60;;
22193;SDS011;11262;50.308;9.270;2022-07-18T05:33:33;3.13;;;2.50;;
22193;SDS011;11262;50.308;9.270;2022-07-18T05:35:59;5.30;;;2.80;;
22193;SDS011;11262;50.308;9.270;2022-07-18T05:38:24;4.87;;;2.60;;
22193;SDS011;11262;50.308;9.270;2022-07-18T05:40:50;7.33;;;2.70;;
22193;SDS011;11262;50.308;9.270;2022-07-18T05:43:15;5.50;;;3.10;;
22193;SDS011;11262;50.308;9.270;2022-07-18T05:45:41;5.57;;;2.90;;
22193;SDS011;11262;50.308;9.270;2022-07-18T05:48:07;5.07;;;2.87;;
22193;SDS011;11262;50.308;9.270;2022-07-18T05:50:32;6.17;;;2.80;;
22193;SDS011;11262;50.308;9.270;2022-07-18T05:52:58;4.77;;;2.90;;
22193;SDS011;11262;50.308;9.270;2022-07-18T05:55:24;7.37;;;2.97;;
22193;SDS011;11262;50.308;9.270;2022-07-18T05:57:49;5.53;;;2.47;;
22193;SDS011;11262;50.308;9.270;2022-07-18T06:00:15;2.80;;;2.17;;
22193;SDS011;11262;50.308;9.270;2022-07-18T06:02:41;2.53;;;2.30;;
22193;SDS011;11262;50.308;9.270;2022-07-18T06:05:07;8.10;;;2.70;;
22193;SDS011;11262;50.308;9.270;2022-07-18T06:07:34;5.73;;;3.13;;
22193;SDS011;11262;50.308;9.270;2022-07-18T06:10:00;3.37;;;2.60;;
22193;SDS011;11262;50.308;9.270;2022-07-18T06:12:27;4.33;;;2.60;;
22193;SDS011;11262;50.308;9.270;2022-07-18T06:14:55;3.33;;;2.67;;
22193;SDS011;11262;50.308;9.270;2022-07-18T06:17:21;6.50;;;2.90;;
22193;SDS011;11262;50.308;9.270;2022-07-18T06:19:47;3.13;;;2.67;;
22193;SDS011;11262;50.308;9.270;2022-07-18T06:22:13;7.60;;;2.43;;
22193;SDS011;11262;50.308;9.270;2022-07-18T06:24:38;5.43;;;2.47;;
22193;SDS011;11262;50.308;9.270;2022-07-18T06:27:04;4.33;;;2.73;;
22193;SDS011;11262;50.308;9.270;2022-07-18T06:29:29;5.23;;;2.50;;
22193;SDS011;11262;50.308;9.270;2022-07-18T06:31:55;6.03;;;2.40;;
22193;SDS011;11262;50.308;9.270;2022-07-18T06:34:21;5.47;;;2.70;;
22193;SDS011;11262;50.308;9.270;2022-07-18T06:36:46;5.20;;;2.87;;
22193;SDS011;11262;50.308;9.270;2022-07-18T06:39:12;4.17;;;2.70;;
22193;SDS011;11262;50.308;9.270;2022-07-18T06:41:39;6.17;;;2.70;;
22193;SDS011;11262;50.308;9.270;2022-07-18T06:44:05;5.03;;;2.70;;
22193;SDS011;11262;50.308;9.270;2022-07-18T06:46:31;5.70;;;2.70;;
22193;SDS011;11262;50.308;9.270;2022-07-18T06:48:57;4.17;;;2.40;;
22193;SDS011;11262;50.308;9.270;2022-07-18T06:51:22;3.20;;;2.27;;
22193;SDS011;11262;50.308;9.270;2022-07-18T06:53:49;4.37;;;2.47;;
22193;SDS011;11262;50.308;9.270;2022-07-18T06:56:16;6.77;;;2.47;;
22193;SDS011;11262;50.308;9.270;2022-07-18T06:58:42;4.63;;;2.13;;
22193;SDS011;11262;50.308;9.270;2022-07-18T07:01:13;4.67;;;2.47;;
22193;SDS011;11262;50.308;9.270;2022-07-18T07:03:43;6.87;;;2.80;;
22193;SDS011;11262;50.308;9.270;2022-07-18T07:06:09;6.70;;;2.90;;
22193;SDS011;11262;50.308;9.270;2022-07-18T07:08:35;3.80;;;2.50;;
22193;SDS011;11262;50.308;9.270;2022-07-18T07:11:00;4.40;;;2.50;;
22193;SDS011;11262;50.308;9.270;2022-07-18T07:13:26;5.90;;;2.53;;
22193;SDS011;11262;50.308;9.270;2022-07-18T07:15:52;6.67;;;2.87;;
22193;SDS011;11262;50.308;9.270;2022-07-18T07:18:17;7.13;;;2.37;;
22193;SDS011;11262;50.308;9.270;2022-07-18T07:20:43;5.27;;;2.50;;
22193;SDS011;11262;50.308;9.270;2022-07-18T07:23:09;5.67;;;2.83;;
22193;SDS011;11262;50.308;9.270;2022-07-18T07:25:35;3.80;;;2.40;;
22193;SDS011;11262;50.308;9.270;2022-07-18T07:28:03;4.10;;;2.50;;
22193;SDS011;11262;50.308;9.270;2022-07-18T07:30:30;7.20;;;2.50;;
22193;SDS011;11262;50.308;9.270;2022-07-18T07:32:56;3.93;;;2.43;;
22193;SDS011;11262;50.308;9.270;2022-07-18T07:35:21;5.17;;;2.30;;
22193;SDS011;11262;50.308;9.270;2022-07-18T07:37:49;4.47;;;2.17;;
22193;SDS011;11262;50.308;9.270;2022-07-18T07:40:17;4.77;;;2.33;;
22193;SDS011;11262;50.308;9.270;2022-07-18T07:42:43;6.97;;;2.27;;
22193;SDS011;11262;50.308;9.270;2022-07-18T07:45:09;3.87;;;2.37;;
22193;SDS011;11262;50.308;9.270;2022-07-18T07:47:36;5.50;;;2.27;;
22193;SDS011;11262;50.308;9.270;2022-07-18T07:50:02;3.10;;;2.00;;
22193;SDS011;11262;50.308;9.270;2022-07-18T07:52:29;5.90;;;2.30;;
22193;SDS011;11262;50.308;9.270;2022-07-18T07:54:55;4.03;;;2.10;;
22193;SDS011;11262;50.308;9.270;2022-07-18T07:57:21;4.63;;;2.47;;
22193;SDS011;11262;50.308;9.270;2022-07-18T07:59:46;3.53;;;2.03;;
22193;SDS011;11262;50.308;9.270;2022-07-18T08:02:12;7.43;;;2.30;;
22193;SDS011;11262;50.308;9.270;2022-07-18T08:04:38;2.93;;;2.10;;
22193;SDS011;11262;50.308;9.270;2022-07-18T08:07:03;6.57;;;2.30;;
22193;SDS011;11262;50.308;9.270;2022-07-18T08:09:29;3.00;;;2.20;;
22193;SDS011;11262;50.308;9.270;2022-07-18T08:11:55;4.63;;;2.10;;
22193;SDS011;11262;50.308;9.270;2022-07-18T08:14:21;4.77;;;2.17;;
22193;SDS011;11262;50.308;9.270;2022-07-18T08:16:46;4.30;;;2.47;;
22193;SDS011;11262;50.308;9.270;2022-07-18T08:19:12;3.57;;;2.13;;
22193;SDS011;11262;50.308;9.270;2022-07-18T08:21:37;4.50;;;2.50;;
22193;SDS011;11262;50.308;9.270;2022-07-18T08:24:03;5.27;;;2.30;;
22193;SDS011;11262;50.308;9.270;2022-07-18T08:26:29;4.67;;;2.03;;
22193;SDS011;11262;50.308;9.270;2022-07-18T08:28:54;5.50;;;2.40;;
22193;SDS011;11262;50.308;9.270;2022-07-18T08:31:20;4.37;;;2.10;;
22193;SDS011;11262;50.308;9.270;2022-07-18T08:33:46;3.97;;;2.10;;
22193;SDS011;11262;50.308;9.270;2022-07-18T08:36:12;4.23;;;2.10;;
22193;SDS011;11262;50.308;9.270;2022-07-18T08:38:38;3.33;;;2.20;;
22193;SDS011;11262;50.308;9.270;2022-07-18T08:41:04;3.07;;;2.10;;
22193;SDS011;11262;50.308;9.270;2022-07-18T08:43:30;3.20;;;1.83;;
22193;SDS011;11262;50.308;9.270;2022-07-18T08:45:56;4.87;;;2.17;;
22193;SDS011;11262;50.308;9.270;2022-07-18T08:48:26;3.13;;;2.10;;
22193;SDS011;11262;50.308;9.270;2022-07-18T08:50:52;5.80;;;1.90;;
22193;SDS011;11262;50.308;9.270;2022-07-18T08:53:18;3.23;;;2.20;;
22193;SDS011;11262;50.308;9.270;2022-07-18T08:55:45;5.27;;;2.37;;
22193;SDS011;11262;50.308;9.270;2022-07-18T08:58:12;3.00;;;1.90;;
22193;SDS011;11262;50.308;9.270;2022-07-18T09:00:39;6.00;;;2.10;;
22193;SDS011;11262;50.308;9.270;2022-07-18T09:03:05;3.20;;;2.00;;
22193;SDS011;11262;50.308;9.270;2022-07-18T09:05:32;7.47;;;2.10;;
22193;SDS011;11262;50.308;9.270;2022-07-18T09:10:40;5.63;;;1.83;;
22193;SDS011;11262;50.308;9.270;2022-07-18T09:13:14;6.17;;;1.93;;
22193;SDS011;11262;50.308;9.270;2022-07-18T09:18:33;4.83;;;1.90;;
22193;SDS011;11262;50.308;9.270;2022-07-18T09:23:39;4.43;;;1.90;;
22193;SDS011;11262;50.308;9.270;2022-07-18T09:26:07;9.23;;;2.10;;
22193;SDS011;11262;50.308;9.270;2022-07-18T09:28:53;2.00;;;1.50;;
22193;SDS011;11262;50.308;9.270;2022-07-18T09:31:19;4.07;;;2.07;;
22193;SDS011;11262;50.308;9.270;2022-07-18T09:33:56;2.63;;;1.80;;
22193;SDS011;11262;50.308;9.270;2022-07-18T09:36:24;4.97;;;1.70;;
22193;SDS011;11262;50.308;9.270;2022-07-18T09:38:50;4.23;;;1.73;;
22193;SDS011;11262;50.308;9.270;2022-07-18T09:41:21;3.10;;;2.00;;
22193;SDS011;11262;50.308;9.270;2022-07-18T09:43:51;3.40;;;1.83;;
22193;SDS011;11262;50.308;9.270;2022-07-18T09:46:17;3.40;;;1.90;;
22193;SDS011;11262;50.308;9.270;2022-07-18T09:48:42;9.33;;;2.10;;
22193;SDS011;11262;50.308;9.270;2022-07-18T09:51:08;3.23;;;2.00;;
22193;SDS011;11262;50.308;9.270;2022-07-18T09:53:38;3.27;;;1.87;;
22193;SDS011;11262;50.308;9.270;2022-07-18T09:56:11;4.60;;;1.93;;
22193;SDS011;11262;50.308;9.270;2022-07-18T09:58:39;4.93;;;1.90;;
22193;SDS011;11262;50.308;9.270;2022-07-18T10:01:07;3.83;;;2.23;;
22193;SDS011;11262;50.308;9.270;2022-07-18T10:03:34;4.10;;;2.03;;
22193;SDS011;11262;50.308;9.270;2022-07-18T10:06:00;4.03;;;2.00;;
22193;SDS011;11262;50.308;9.270;2022-07-18T10:08:28;4.00;;;2.00;;
22193;SDS011;11262;50.308;9.270;2022-07-18T10:10:55;3.27;;;1.80;;
22193;SDS011;11262;50.308;9.270;2022-07-18T10:13:24;3.23;;;1.80;;
22193;SDS011;11262;50.308;9.270;2022-07-18T10:15:51;3.63;;;2.00;;
22193;SDS011;11262;50.308;9.270;2022-07-18T10:18:21;5.10;;;2.10;;
22193;SDS011;11262;50.308;9.270;2022-07-18T10:20:57;2.57;;;1.67;;
22193;SDS011;11262;50.308;9.270;2022-07-18T10:31:27;3.17;;;1.63;;
22193;SDS011;11262;50.308;9.270;2022-07-18T10:33:53;5.03;;;2.20;;
22193;SDS011;11262;50.308;9.270;2022-07-18T10:39:15;3.10;;;1.90;;
22193;SDS011;11262;50.308;9.270;2022-07-18T11:00:15;4.77;;;2.00;;
22193;SDS011;11262;50.308;9.270;2022-07-18T11:15:56;6.17;;;2.07;;
22193;SDS011;11262;50.308;9.270;2022-07-18T11:21:15;5.70;;;2.00;;
22193;SDS011;11262;50.308;9.270;2022-07-18T11:23:51;5.77;;;2.03;;
22193;SDS011;11262;50.308;9.270;2022-07-18T11:26:45;3.40;;;2.20;;
22193;SDS011;11262;50.308;9.270;2022-07-18T11:29:13;3.70;;;2.00;;
22193;SDS011;11262;50.308;9.270;2022-07-18T11:31:49;3.67;;;2.07;;
22193;SDS011;11262;50.308;9.270;2022-07-18T11:34:16;4.23;;;2.10;;
22193;SDS011;11262;50.308;9.270;2022-07-18T11:36:42;6.40;;;2.07;;
22193;SDS011;11262;50.308;9.270;2022-07-18T11:39:11;5.20;;;2.10;;
22193;SDS011;11262;50.308;9.270;2022-07-18T11:41:37;5.23;;;1.80;;
22193;SDS011;11262;50.308;9.270;2022-07-18T11:44:05;4.30;;;1.88;;
22193;SDS011;11262;50.308;9.270;2022-07-18T11:46:43;4.43;;;1.50;;
22193;SDS011;11262;50.308;9.270;2022-07-18T11:49:09;5.53;;;1.75;;
22193;SDS011;11262;50.308;9.270;2022-07-18T11:51:36;2.70;;;1.98;;
22193;SDS011;11262;50.308;9.270;2022-07-18T11:54:03;2.03;;;1.83;;
22193;SDS011;11262;50.308;9.270;2022-07-18T11:56:30;6.25;;;1.92;;
22193;SDS011;11262;50.308;9.270;2022-07-18T11:58:55;2.63;;;1.77;;
22193;SDS011;11262;50.308;9.270;2022-07-18T12:01:23;4.97;;;2.13;;
22193;SDS011;11262;50.308;9.270;2022-07-18T12:03:58;3.83;;;1.85;;
22193;SDS011;11262;50.308;9.270;2022-07-18T12:06:24;3.40;;;1.98;;
22193;SDS011;11262;50.308;9.270;2022-07-18T12:08:56;2.97;;;1.92;;
22193;SDS011;11262;50.308;9.270;2022-07-18T12:11:28;5.65;;;2.42;;
22193;SDS011;11262;50.308;9.270;2022-07-18T12:18:53;5.05;;;2.13;;
22193;SDS011;11262;50.308;9.270;2022-07-18T12:21:21;6.40;;;2.17;;
22193;SDS011;11262;50.308;9.270;2022-07-18T12:23:47;4.38;;;1.75;;
22193;SDS011;11262;50.308;9.270;2022-07-18T12:26:28;2.90;;;1.80;;
22193;SDS011;11262;50.308;9.270;2022-07-18T12:29:05;3.47;;;2.00;;
22193;SDS011;11262;50.308;9.270;2022-07-18T12:31:41;3.58;;;2.00;;
22193;SDS011;11262;50.308;9.270;2022-07-18T12:34:09;5.78;;;2.10;;
22193;SDS011;11262;50.308;9.270;2022-07-18T12:36:54;4.07;;;1.88;;
22193;SDS011;11262;50.308;9.270;2022-07-18T12:39:32;2.40;;;1.95;;
22193;SDS011;11262;50.308;9.270;2022-07-18T12:41:59;7.30;;;2.20;;
22193;SDS011;11262;50.308;9.270;2022-07-18T12:44:25;4.43;;;1.90;;
22193;SDS011;11262;50.308;9.270;2022-07-18T12:46:52;3.92;;;1.98;;
22193;SDS011;11262;50.308;9.270;2022-07-18T12:49:18;5.43;;;1.98;;
22193;SDS011;11262;50.308;9.270;2022-07-18T12:51:44;5.07;;;1.65;;
22193;SDS011;11262;50.308;9.270;2022-07-18T12:54:09;4.93;;;2.00;;
22193;SDS011;11262;50.308;9.270;2022-07-18T12:56:35;3.75;;;1.83;;
22193;SDS011;11262;50.308;9.270;2022-07-18T12:59:01;3.28;;;1.80;;
22193;SDS011;11262;50.308;9.270;2022-07-18T13:01:26;3.75;;;1.73;;
22193;SDS011;11262;50.308;9.270;2022-07-18T13:03:52;3.92;;;1.77;;
22193;SDS011;11262;50.308;9.270;2022-07-18T13:06:18;6.40;;;2.00;;
22193;SDS011;11262;50.308;9.270;2022-07-18T13:08:43;2.95;;;1.83;;
22193;SDS011;11262;50.308;9.270;2022-07-18T13:11:09;2.38;;;1.60;;
22193;SDS011;11262;50.308;9.270;2022-07-18T13:13:34;8.32;;;2.17;;
22193;SDS011;11262;50.308;9.270;2022-07-18T13:16:00;2.75;;;1.77;;
22193;SDS011;11262;50.308;9.270;2022-07-18T13:18:26;6.32;;;1.98;;
22193;SDS011;11262;50.308;9.270;2022-07-18T13:20:51;2.25;;;1.70;;
22193;SDS011;11262;50.308;9.270;2022-07-18T13:23:17;3.92;;;1.90;;
22193;SDS011;11262;50.308;9.270;2022-07-18T13:25:43;4.40;;;2.10;;
22193;SDS011;11262;50.308;9.270;2022-07-18T13:28:09;3.92;;;1.90;;
22193;SDS011;11262;50.308;9.270;2022-07-18T13:30:35;2.17;;;1.80;;
22193;SDS011;11262;50.308;9.270;2022-07-18T13:33:01;2.03;;;1.77;;
22193;SDS011;11262;50.308;9.270;2022-07-18T13:35:28;3.28;;;1.90;;
22193;SDS011;11262;50.308;9.270;2022-07-18T13:37:54;7.07;;;1.95;;
22193;SDS011;11262;50.308;9.270;2022-07-18T13:40:19;3.80;;;1.67;;
22193;SDS011;11262;50.308;9.270;2022-07-18T13:42:45;3.25;;;1.95;;
22193;SDS011;11262;50.308;9.270;2022-07-18T13:45:10;2.88;;;1.95;;
22193;SDS011;11262;50.308;9.270;2022-07-18T13:47:38;4.80;;;2.10;;
22193;SDS011;11262;50.308;9.270;2022-07-18T13:50:06;3.65;;;1.95;;
22193;SDS011;11262;50.308;9.270;2022-07-18T13:52:32;5.05;;;1.85;;
22193;SDS011;11262;50.308;9.270;2022-07-18T13:54:58;4.85;;;1.98;;
22193;SDS011;11262;50.308;9.270;2022-07-18T13:57:24;3.22;;;1.80;;
22193;SDS011;11262;50.308;9.270;2022-07-18T13:59:50;3.28;;;1.75;;
22193;SDS011;11262;50.308;9.270;2022-07-18T14:02:16;3.80;;;2.17;;
22193;SDS011;11262;50.308;9.270;2022-07-18T14:04:42;3.53;;;2.13;;
22193;SDS011;11262;50.308;9.270;2022-07-18T14:07:07;2.38;;;1.77;;
22193;SDS011;11262;50.308;9.270;2022-07-18T14:09:33;5.63;;;1.95;;
22193;SDS011;11262;50.308;9.270;2022-07-18T14:11:59;5.68;;;2.00;;
22193;SDS011;11262;50.308;9.270;2022-07-18T14:14:24;4.70;;;2.00;;
22193;SDS011;11262;50.308;9.270;2022-07-18T14:16:51;9.90;;;2.17;;
22193;SDS011;11262;50.308;9.270;2022-07-18T14:19:17;5.32;;;2.20;;
22193;SDS011;11262;50.308;9.270;2022-07-18T14:21:44;6.65;;;2.15;;
22193;SDS011;11262;50.308;9.270;2022-07-18T14:24:10;4.18;;;2.10;;
22193;SDS011;11262;50.308;9.270;2022-07-18T14:26:36;2.78;;;2.00;;
22193;SDS011;11262;50.308;9.270;2022-07-18T14:29:02;6.50;;;2.13;;
22193;SDS011;11262;50.308;9.270;2022-07-18T14:31:27;6.47;;;2.25;;
22193;SDS011;11262;50.308;9.270;2022-07-18T14:33:53;5.63;;;2.25;;
22193;SDS011;11262;50.308;9.270;2022-07-18T14:36:18;4.47;;;1.92;;
22193;SDS011;11262;50.308;9.270;2022-07-18T14:38:44;2.63;;;1.80;;
22193;SDS011;11262;50.308;9.270;2022-07-18T14:41:10;7.93;;;2.20;;
22193;SDS011;11262;50.308;9.270;2022-07-18T14:43:37;5.25;;;2.25;;
22193;SDS011;11262;50.308;9.270;2022-07-18T14:46:02;4.70;;;2.15;;
22193;SDS011;11262;50.308;9.270;2022-07-18T14:48:28;3.78;;;2.42;;
22193;SDS011;11262;50.308;9.270;2022-07-18T14:50:54;6.43;;;2.20;;
22193;SDS011;11262;50.308;9.270;2022-07-18T14:53:20;6.88;;;2.00;;
22193;SDS011;11262;50.308;9.270;2022-07-18T14:55:46;5.38;;;2.22;;
22193;SDS011;11262;50.308;9.270;2022-07-18T14:58:11;6.40;;;2.13;;
22193;SDS011;11262;50.308;9.270;2022-07-18T15:00:37;4.80;;;2.15;;
22193;SDS011;11262;50.308;9.270;2022-07-18T15:03:03;5.57;;;2.10;;
22193;SDS011;11262;50.308;9.270;2022-07-18T15:05:28;9.65;;;2.35;;
22193;SDS011;11262;50.308;9.270;2022-07-18T15:07:54;5.90;;;2.13;;
22193;SDS011;11262;50.308;9.270;2022-07-18T15:10:19;2.55;;;2.03;;
22193;SDS011;11262;50.308;9.270;2022-07-18T15:12:45;4.40;;;2.25;;
22193;SDS011;11262;50.308;9.270;2022-07-18T15:15:11;6.30;;;1.90;;
22193;SDS011;11262;50.308;9.270;2022-07-18T15:17:36;6.38;;;1.98;;
22193;SDS011;11262;50.308;9.270;2022-07-18T15:20:03;8.80;;;2.35;;
22193;SDS011;11262;50.308;9.270;2022-07-18T15:22:29;4.80;;;2.00;;
22193;SDS011;11262;50.308;9.270;2022-07-18T15:24:55;10.57;;;5.70;;
22193;SDS011;11262;50.308;9.270;2022-07-18T15:27:21;13.25;;;4.20;;
22193;SDS011;11262;50.308;9.270;2022-07-18T15:29:46;4.95;;;2.30;;
22193;SDS011;11262;50.308;9.270;2022-07-18T15:32:12;4.57;;;2.30;;
22193;SDS011;11262;50.308;9.270;2022-07-18T15:34:38;9.05;;;2.20;;
22193;SDS011;11262;50.308;9.270;2022-07-18T15:37:04;7.25;;;3.38;;
22193;SDS011;11262;50.308;9.270;2022-07-18T15:39:30;10.18;;;2.88;;
22193;SDS011;11262;50.308;9.270;2022-07-18T15:41:56;9.15;;;2.47;;
22193;SDS011;11262;50.308;9.270;2022-07-18T15:44:22;6.13;;;2.15;;